sensor_id;sensor_type;location;lat;lon;timestamp;pressure;altitude;pressure_sealevel;temperature;humidity
70833;BME280;58452;59.418;17.962;2023-04-21T00:00:23;102460.03;;;6.44;51.25
70833;BME280;58452;59.418;17.962;2023-04-21T00:02:48;102454.91;;;6.44;50.80
70833;BME280;58452;59.418;17.962;2023-04-21T00:05:14;102457.63;;;6.41;50.92
70833;BME280;58452;59.418;17.962;2023-04-21T00:07:39;102453.44;;;6.38;51.13
70833;BME280;58452;59.418;17.962;2023-04-21T00:10:09;102456.16;;;6.35;51.34
70833;BME280;58452;59.418;17.962;2023-04-21T00:12:36;102451.13;;;6.34;51.58
70833;BME280;58452;59.418;17.962;2023-04-21T00:15:01;102452.84;;;6.33;51.48
70833;BME280;58452;59.418;17.962;2023-04-21T00:17:27;102447.94;;;6.29;51.28
70833;BME280;58452;59.418;17.962;2023-04-21T00:19:53;102456.50;;;6.28;51.50
70833;BME280;58452;59.418;17.962;2023-04-21T00:22:18;102443.84;;;6.25;51.80
70833;BME280;58452;59.418;17.962;2023-04-21T00:24:45;102445.66;;;6.23;52.28
70833;BME280;58452;59.418;17.962;2023-04-21T00:27:11;102453.50;;;6.20;52.34
70833;BME280;58452;59.418;17.962;2023-04-21T00:29:36;102439.16;;;6.16;51.78
70833;BME280;58452;59.418;17.962;2023-04-21T00:32:03;102440.06;;;6.15;52.20
70833;BME280;58452;59.418;17.962;2023-04-21T00:34:32;102435.06;;;6.12;52.48
70833;BME280;58452;59.418;17.962;2023-04-21T00:36:58;102436.84;;;6.10;52.75
70833;BME280;58452;59.418;17.962;2023-04-21T00:39:23;102442.91;;;6.09;52.21
70833;BME280;58452;59.418;17.962;2023-04-21T00:41:49;102428.44;;;6.08;52.10
70833;BME280;58452;59.418;17.962;2023-04-21T00:44:14;102431.03;;;6.06;52.56
70833;BME280;58452;59.418;17.962;2023-04-21T00:46:39;102428.72;;;6.02;52.75
70833;BME280;58452;59.418;17.962;2023-04-21T00:49:07;102425.31;;;6.01;52.69
70833;BME280;58452;59.418;17.962;2023-04-21T00:51:34;102424.53;;;5.99;52.53
70833;BME280;58452;59.418;17.962;2023-04-21T00:54:02;102423.84;;;5.96;52.62
70833;BME280;58452;59.418;17.962;2023-04-21T00:56:30;102422.19;;;5.95;53.00
70833;BME280;58452;59.418;17.962;2023-04-21T00:58:57;102429.19;;;5.91;52.53
70833;BME280;58452;59.418;17.962;2023-04-21T01:01:23;102425.94;;;5.87;53.00
70833;BME280;58452;59.418;17.962;2023-04-21T01:03:49;102432.84;;;5.85;52.96
70833;BME280;58452;59.418;17.962;2023-04-21T01:06:16;102422.75;;;5.82;53.08
70833;BME280;58452;59.418;17.962;2023-04-21T01:08:42;102425.44;;;5.79;53.39
70833;BME280;58452;59.418;17.962;2023-04-21T01:11:09;102413.72;;;5.74;53.18
70833;BME280;58452;59.418;17.962;2023-04-21T01:13:35;102412.91;;;5.73;53.46
70833;BME280;58452;59.418;17.962;2023-04-21T01:16:01;102415.53;;;5.72;53.24
70833;BME280;58452;59.418;17.962;2023-04-21T01:18:26;102409.72;;;5.68;53.61
70833;BME280;58452;59.418;17.962;2023-04-21T01:20:53;102408.81;;;5.69;53.65
70833;BME280;58452;59.418;17.962;2023-04-21T01:23:18;102418.31;;;5.67;54.02
70833;BME280;58452;59.418;17.962;2023-04-21T01:25:45;102413.31;;;5.64;53.82
70833;BME280;58452;59.418;17.962;2023-04-21T01:28:11;102405.69;;;5.63;53.82
70833;BME280;58452;59.418;17.962;2023-04-21T01:30:37;102404.03;;;5.62;54.61
70833;BME280;58452;59.418;17.962;2023-04-21T01:33:03;102407.56;;;5.59;53.74
70833;BME280;58452;59.418;17.962;2023-04-21T01:35:28;102403.34;;;5.58;54.71
70833;BME280;58452;59.418;17.962;2023-04-21T01:37:54;102401.69;;;5.57;54.46
70833;BME280;58452;59.418;17.962;2023-04-21T01:40:19;102398.34;;;5.55;53.81
70833;BME280;58452;59.418;17.962;2023-04-21T01:42:45;102401.94;;;5.51;54.13
70833;BME280;58452;59.418;17.962;2023-04-21T01:45:10;102396.97;;;5.48;55.18
70833;BME280;58452;59.418;17.962;2023-04-21T01:47:36;102396.97;;;5.48;55.09
70833;BME280;58452;59.418;17.962;2023-04-21T01:50:02;102386.81;;;5.47;55.01
70833;BME280;58452;59.418;17.962;2023-04-21T01:52:28;102392.81;;;5.46;54.85
70833;BME280;58452;59.418;17.962;2023-04-21T01:54:54;102386.88;;;5.45;54.46
70833;BME280;58452;59.418;17.962;2023-04-21T01:57:19;102386.09;;;5.43;54.80
70833;BME280;58452;59.418;17.962;2023-04-21T01:59:45;102387.84;;;5.43;55.06
70833;BME280;58452;59.418;17.962;2023-04-21T02:02:10;102380.22;;;5.41;55.17
70833;BME280;58452;59.418;17.962;2023-04-21T02:04:36;102387.16;;;5.39;55.03
70833;BME280;58452;59.418;17.962;2023-04-21T02:07:01;102389.75;;;5.37;55.08
70833;BME280;58452;59.418;17.962;2023-04-21T02:09:27;102382.13;;;5.36;54.83
70833;BME280;58452;59.418;17.962;2023-04-21T02:11:54;102386.50;;;5.34;55.11
70833;BME280;58452;59.418;17.962;2023-04-21T02:14:21;102383.94;;;5.34;54.96
70833;BME280;58452;59.418;17.962;2023-04-21T02:16:47;102377.31;;;5.30;55.05
70833;BME280;58452;59.418;17.962;2023-04-21T02:19:12;102374.88;;;5.27;55.49
70833;BME280;58452;59.418;17.962;2023-04-21T02:21:37;102380.19;;;5.22;54.75
70833;BME280;58452;59.418;17.962;2023-04-21T02:24:03;102372.72;;;5.18;55.13
70833;BME280;58452;59.418;17.962;2023-04-21T02:26:28;102377.03;;;5.17;55.88
70833;BME280;58452;59.418;17.962;2023-04-21T02:28:54;102371.19;;;5.14;55.38
70833;BME280;58452;59.418;17.962;2023-04-21T02:31:19;102373.03;;;5.10;55.40
70833;BME280;58452;59.418;17.962;2023-04-21T02:33:45;102374.84;;;5.08;55.10
70833;BME280;58452;59.418;17.962;2023-04-21T02:36:11;102374.09;;;5.06;55.81
70833;BME280;58452;59.418;17.962;2023-04-21T02:38:36;102378.47;;;5.03;55.39
70833;BME280;58452;59.418;17.962;2023-04-21T02:41:02;102376.97;;;4.99;55.82
70833;BME280;58452;59.418;17.962;2023-04-21T02:43:27;102380.44;;;4.98;56.05
70833;BME280;58452;59.418;17.962;2023-04-21T02:45:52;102382.19;;;4.96;56.60
70833;BME280;58452;59.418;17.962;2023-04-21T02:48:18;102377.22;;;4.92;55.93
70833;BME280;58452;59.418;17.962;2023-04-21T02:50:50;102377.34;;;4.89;56.61
70833;BME280;58452;59.418;17.962;2023-04-21T02:53:18;102375.81;;;4.85;56.84
70833;BME280;58452;59.418;17.962;2023-04-21T02:55:43;102375.13;;;4.82;56.69
70833;BME280;58452;59.418;17.962;2023-04-21T02:58:09;102380.31;;;4.80;56.50
70833;BME280;58452;59.418;17.962;2023-04-21T03:00:35;102376.22;;;4.76;56.72
70833;BME280;58452;59.418;17.962;2023-04-21T03:03:00;102383.13;;;4.74;57.02
70833;BME280;58452;59.418;17.962;2023-04-21T03:05:26;102377.25;;;4.72;56.13
70833;BME280;58452;59.418;17.962;2023-04-21T03:07:51;102374.69;;;4.72;56.97
70833;BME280;58452;59.418;17.962;2023-04-21T03:10:17;102371.34;;;4.70;57.06
70833;BME280;58452;59.418;17.962;2023-04-21T03:12:44;102380.88;;;4.67;57.16
70833;BME280;58452;59.418;17.962;2023-04-21T03:15:09;102378.53;;;4.62;56.45
70833;BME280;58452;59.418;17.962;2023-04-21T03:17:35;102371.75;;;4.61;57.13
70833;BME280;58452;59.418;17.962;2023-04-21T03:20:01;102376.19;;;4.56;56.68
70833;BME280;58452;59.418;17.962;2023-04-21T03:22:29;102377.03;;;4.57;57.23
70833;BME280;58452;59.418;17.962;2023-04-21T03:24:54;102371.97;;;4.55;56.69
70833;BME280;58452;59.418;17.962;2023-04-21T03:27:20;102375.44;;;4.54;56.66
70833;BME280;58452;59.418;17.962;2023-04-21T03:29:45;102371.41;;;4.49;56.75
70833;BME280;58452;59.418;17.962;2023-04-21T03:32:10;102375.69;;;4.48;58.04
70833;BME280;58452;59.418;17.962;2023-04-21T03:34:36;102367.25;;;4.46;57.61
70833;BME280;58452;59.418;17.962;2023-04-21T03:37:01;102369.81;;;4.46;57.65
70833;BME280;58452;59.418;17.962;2023-04-21T03:39:27;102368.13;;;4.45;57.58
70833;BME280;58452;59.418;17.962;2023-04-21T03:41:52;102367.38;;;4.43;57.37
70833;BME280;58452;59.418;17.962;2023-04-21T03:44:18;102369.03;;;4.44;58.41
70833;BME280;58452;59.418;17.962;2023-04-21T03:46:43;102363.16;;;4.42;58.25
70833;BME280;58452;59.418;17.962;2023-04-21T03:49:08;102365.72;;;4.42;57.61
70833;BME280;58452;59.418;17.962;2023-04-21T03:51:34;102370.81;;;4.42;57.74
70833;BME280;58452;59.418;17.962;2023-04-21T03:53:59;102359.00;;;4.39;58.19
70833;BME280;58452;59.418;17.962;2023-04-21T03:56:25;102365.72;;;4.42;57.91
70833;BME280;58452;59.418;17.962;2023-04-21T03:58:50;102370.81;;;4.42;58.37
70833;BME280;58452;59.418;17.962;2023-04-21T04:01:16;102373.34;;;4.43;58.35
70833;BME280;58452;59.418;17.962;2023-04-21T04:03:42;102370.69;;;4.45;58.06
70833;BME280;58452;59.418;17.962;2023-04-21T04:06:07;102367.25;;;4.46;58.28
70833;BME280;58452;59.418;17.962;2023-04-21T04:08:32;102365.44;;;4.48;58.28
70833;BME280;58452;59.418;17.962;2023-04-21T04:10:58;102355.22;;;4.48;59.12
70833;BME280;58452;59.418;17.962;2023-04-21T04:13:23;102358.56;;;4.50;58.22
70833;BME280;58452;59.418;17.962;2023-04-21T04:15:50;102352.44;;;4.54;58.83
70833;BME280;58452;59.418;17.962;2023-04-21T04:18:17;102357.34;;;4.59;58.48
70833;BME280;58452;59.418;17.962;2023-04-21T04:20:42;102358.06;;;4.62;59.06
70833;BME280;58452;59.418;17.962;2023-04-21T04:23:08;102357.09;;;4.65;58.93
70833;BME280;58452;59.418;17.962;2023-04-21T04:25:33;102346.69;;;4.69;59.16
70833;BME280;58452;59.418;17.962;2023-04-21T04:27:58;102351.53;;;4.75;59.55
70833;BME280;58452;59.418;17.962;2023-04-21T04:30:25;102343.59;;;4.81;58.92
70833;BME280;58452;59.418;17.962;2023-04-21T04:32:52;102345.06;;;4.87;59.40
70833;BME280;58452;59.418;17.962;2023-04-21T04:35:17;102343.97;;;4.92;59.27
70833;BME280;58452;59.418;17.962;2023-04-21T04:37:44;102344.59;;;4.98;59.08
70833;BME280;58452;59.418;17.962;2023-04-21T04:40:10;102349.44;;;5.04;58.59
70833;BME280;58452;59.418;17.962;2023-04-21T04:42:38;102340.75;;;5.08;59.79
70833;BME280;58452;59.418;17.962;2023-04-21T04:45:05;102347.25;;;5.15;59.67
70833;BME280;58452;59.418;17.962;2023-04-21T04:47:32;102345.19;;;5.23;59.24
70833;BME280;58452;59.418;17.962;2023-04-21T04:49:58;102343.13;;;5.31;58.92
70833;BME280;58452;59.418;17.962;2023-04-21T04:52:23;102342.84;;;5.37;59.16
70833;BME280;58452;59.418;17.962;2023-04-21T04:54:48;102340.63;;;5.48;58.55
70833;BME280;58452;59.418;17.962;2023-04-21T04:57:14;102343.53;;;5.59;58.89
70833;BME280;58452;59.418;17.962;2023-04-21T04:59:39;102346.44;;;5.70;58.35
70833;BME280;58452;59.418;17.962;2023-04-21T05:02:06;102345.09;;;5.80;58.77
70833;BME280;58452;59.418;17.962;2023-04-21T05:04:33;102343.66;;;5.94;57.74
70833;BME280;58452;59.418;17.962;2023-04-21T05:06:58;102346.56;;;6.05;57.33
70833;BME280;58452;59.418;17.962;2023-04-21T05:09:24;102347.78;;;6.15;56.83
70833;BME280;58452;59.418;17.962;2023-04-21T05:11:50;102341.13;;;6.11;57.03
70833;BME280;58452;59.418;17.962;2023-04-21T05:14:15;102353.94;;;6.28;56.16
70833;BME280;58452;59.418;17.962;2023-04-21T05:16:42;102340.53;;;6.40;55.89
70833;BME280;58452;59.418;17.962;2023-04-21T05:19:08;102337.66;;;6.46;55.75
70833;BME280;58452;59.418;17.962;2023-04-21T05:21:33;102336.91;;;6.61;54.96
70833;BME280;58452;59.418;17.962;2023-04-21T05:23:58;102337.81;;;6.77;54.17
70833;BME280;58452;59.418;17.962;2023-04-21T05:26:25;102339.50;;;6.94;54.22
70833;BME280;58452;59.418;17.962;2023-04-21T05:28:55;102338.63;;;7.11;53.94
70833;BME280;58452;59.418;17.962;2023-04-21T05:31:23;102333.78;;;7.22;53.65
70833;BME280;58452;59.418;17.962;2023-04-21T05:33:49;102325.25;;;7.37;54.26
70833;BME280;58452;59.418;17.962;2023-04-21T05:36:15;102336.19;;;7.56;54.64
70833;BME280;58452;59.418;17.962;2023-04-21T05:38:41;102324.16;;;7.72;54.56
70833;BME280;58452;59.418;17.962;2023-04-21T05:41:06;102317.19;;;7.74;55.16
70833;BME280;58452;59.418;17.962;2023-04-21T05:43:32;102324.22;;;7.86;55.89
70833;BME280;58452;59.418;17.962;2023-04-21T05:46:02;102320.44;;;8.08;55.71
70833;BME280;58452;59.418;17.962;2023-04-21T05:48:28;102316.72;;;8.29;55.98
70833;BME280;58452;59.418;17.962;2023-04-21T05:50:54;102320.88;;;8.46;55.21
70833;BME280;58452;59.418;17.962;2023-04-21T05:53:20;102322.63;;;8.59;54.92
70833;BME280;58452;59.418;17.962;2023-04-21T05:55:47;102311.25;;;8.77;54.32
70833;BME280;58452;59.418;17.962;2023-04-21T05:58:13;102321.28;;;8.96;54.40
70833;BME280;58452;59.418;17.962;2023-04-21T06:00:38;102316.94;;;9.11;54.52
70833;BME280;58452;59.418;17.962;2023-04-21T06:03:04;102318.38;;;9.29;53.67
70833;BME280;58452;59.418;17.962;2023-04-21T06:05:29;102320.22;;;9.41;53.69
70833;BME280;58452;59.418;17.962;2023-04-21T06:07:55;102312.44;;;9.55;53.42
70833;BME280;58452;59.418;17.962;2023-04-21T06:10:20;102316.09;;;9.65;52.91
70833;BME280;58452;59.418;17.962;2023-04-21T06:12:46;102316.06;;;9.79;53.26
70833;BME280;58452;59.418;17.962;2023-04-21T06:15:11;102306.69;;;9.91;53.04
70833;BME280;58452;59.418;17.962;2023-04-21T06:17:36;102310.44;;;10.00;53.25
70833;BME280;58452;59.418;17.962;2023-04-21T06:20:02;102298.25;;;10.02;52.84
70833;BME280;58452;59.418;17.962;2023-04-21T06:22:28;102299.34;;;10.12;52.90
70833;BME280;58452;59.418;17.962;2023-04-21T06:24:53;102306.00;;;10.28;52.56
70833;BME280;58452;59.418;17.962;2023-04-21T06:27:19;102300.53;;;10.33;52.24
70833;BME280;58452;59.418;17.962;2023-04-21T06:29:44;102297.16;;;10.45;52.15
70833;BME280;58452;59.418;17.962;2023-04-21T06:32:10;102301.69;;;10.42;52.63
70833;BME280;58452;59.418;17.962;2023-04-21T06:34:36;102297.53;;;10.64;52.63
70833;BME280;58452;59.418;17.962;2023-04-21T06:37:02;102293.00;;;10.81;52.23
70833;BME280;58452;59.418;17.962;2023-04-21T06:39:27;102284.69;;;11.01;52.02
70833;BME280;58452;59.418;17.962;2023-04-21T06:41:53;102292.34;;;11.15;51.43
70833;BME280;58452;59.418;17.962;2023-04-21T06:44:19;102283.38;;;11.32;51.57
70833;BME280;58452;59.418;17.962;2023-04-21T06:46:44;102279.25;;;11.29;51.65
70833;BME280;58452;59.418;17.962;2023-04-21T06:49:11;102278.78;;;11.48;50.99
70833;BME280;58452;59.418;17.962;2023-04-21T06:51:37;102274.28;;;11.62;50.65
70833;BME280;58452;59.418;17.962;2023-04-21T06:54:02;102273.91;;;11.80;50.63
70833;BME280;58452;59.418;17.962;2023-04-21T06:56:29;102272.19;;;11.91;50.19
70833;BME280;58452;59.418;17.962;2023-04-21T06:58:55;102269.47;;;11.93;50.98
70833;BME280;58452;59.418;17.962;2023-04-21T07:01:21;102267.16;;;12.12;50.28
70833;BME280;58452;59.418;17.962;2023-04-21T07:03:48;102271.69;;;12.32;50.25
70833;BME280;58452;59.418;17.962;2023-04-21T07:06:14;102260.41;;;12.44;49.44
70833;BME280;58452;59.418;17.962;2023-04-21T07:08:39;102268.19;;;12.55;49.68
70833;BME280;58452;59.418;17.962;2023-04-21T07:11:05;102259.00;;;12.62;50.11
70833;BME280;58452;59.418;17.962;2023-04-21T07:13:31;102256.06;;;12.78;49.22
70833;BME280;58452;59.418;17.962;2023-04-21T07:15:56;102249.34;;;12.87;49.20
70833;BME280;58452;59.418;17.962;2023-04-21T07:18:22;102258.97;;;12.96;48.52
70833;BME280;58452;59.418;17.962;2023-04-21T07:20:47;102254.28;;;13.01;48.42
70833;BME280;58452;59.418;17.962;2023-04-21T07:23:12;102249.78;;;13.03;48.49
70833;BME280;58452;59.418;17.962;2023-04-21T07:25:38;102248.59;;;13.07;48.28
70833;BME280;58452;59.418;17.962;2023-04-21T07:28:04;102245.56;;;13.13;48.09
70833;BME280;58452;59.418;17.962;2023-04-21T07:30:29;102234.59;;;13.20;48.02
70833;BME280;58452;59.418;17.962;2023-04-21T07:32:56;102234.22;;;13.03;48.28
70833;BME280;58452;59.418;17.962;2023-04-21T07:35:22;102239.88;;;13.08;48.73
70833;BME280;58452;59.418;17.962;2023-04-21T07:37:48;102231.88;;;13.22;48.02
70833;BME280;58452;59.418;17.962;2023-04-21T07:40:13;102236.09;;;13.34;48.21
70833;BME280;58452;59.418;17.962;2023-04-21T07:42:39;102237.50;;;13.38;48.63
70833;BME280;58452;59.418;17.962;2023-04-21T07:45:06;102238.13;;;13.51;47.88
70833;BME280;58452;59.418;17.962;2023-04-21T07:47:31;102225.13;;;13.62;47.45
70833;BME280;58452;59.418;17.962;2023-04-21T07:49:57;102218.22;;;13.73;47.04
70833;BME280;58452;59.418;17.962;2023-04-21T07:52:22;102216.28;;;13.86;46.95
70833;BME280;58452;59.418;17.962;2023-04-21T07:54:48;102215.50;;;13.95;47.29
70833;BME280;58452;59.418;17.962;2023-04-21T07:57:14;102209.19;;;14.08;46.77
70833;BME280;58452;59.418;17.962;2023-04-21T07:59:39;102208.97;;;14.21;46.43
70833;BME280;58452;59.418;17.962;2023-04-21T08:02:05;102209.16;;;14.29;45.43
70833;BME280;58452;59.418;17.962;2023-04-21T08:04:30;102204.44;;;14.34;45.58
70833;BME280;58452;59.418;17.962;2023-04-21T08:06:56;102204.41;;;14.13;46.41
70833;BME280;58452;59.418;17.962;2023-04-21T08:09:21;102205.78;;;14.38;46.49
70833;BME280;58452;59.418;17.962;2023-04-21T08:11:47;102189.34;;;14.58;46.15
70833;BME280;58452;59.418;17.962;2023-04-21T08:14:12;102195.66;;;14.75;45.71
70833;BME280;58452;59.418;17.962;2023-04-21T08:16:38;102192.94;;;14.86;45.13
70833;BME280;58452;59.418;17.962;2023-04-21T08:19:06;102193.25;;;14.93;44.89
70833;BME280;58452;59.418;17.962;2023-04-21T08:21:31;102188.22;;;15.10;44.95
70833;BME280;58452;59.418;17.962;2023-04-21T08:23:57;102190.28;;;15.26;44.38
70833;BME280;58452;59.418;17.962;2023-04-21T08:26:23;102188.34;;;15.28;44.01
70833;BME280;58452;59.418;17.962;2023-04-21T08:28:49;102186.69;;;15.08;44.46
70833;BME280;58452;59.418;17.962;2023-04-21T08:31:17;102187.00;;;15.14;43.88
70833;BME280;58452;59.418;17.962;2023-04-21T08:33:42;102173.19;;;15.33;43.88
70833;BME280;58452;59.418;17.962;2023-04-21T08:36:08;102177.91;;;14.90;43.83
70833;BME280;58452;59.418;17.962;2023-04-21T08:38:34;102176.63;;;14.55;44.79
70833;BME280;58452;59.418;17.962;2023-04-21T08:41:00;102176.22;;;14.60;44.95
70833;BME280;58452;59.418;17.962;2023-04-21T08:43:27;102172.81;;;14.79;45.27
70833;BME280;58452;59.418;17.962;2023-04-21T08:45:54;102167.34;;;14.72;44.52
70833;BME280;58452;59.418;17.962;2023-04-21T08:48:20;102165.28;;;14.56;44.60
70833;BME280;58452;59.418;17.962;2023-04-21T08:50:49;102157.56;;;14.45;44.87
70833;BME280;58452;59.418;17.962;2023-04-21T08:53:15;102159.53;;;14.62;44.76
70833;BME280;58452;59.418;17.962;2023-04-21T08:55:42;102165.06;;;14.88;45.33
70833;BME280;58452;59.418;17.962;2023-04-21T08:58:08;102165.59;;;15.01;44.18
70833;BME280;58452;59.418;17.962;2023-04-21T09:00:34;102159.59;;;15.20;44.97
70833;BME280;58452;59.418;17.962;2023-04-21T09:03:01;102166.19;;;15.24;43.48
70833;BME280;58452;59.418;17.962;2023-04-21T09:05:32;102163.97;;;15.39;43.81
70833;BME280;58452;59.418;17.962;2023-04-21T09:08:27;102162.59;;;15.63;42.29
70833;BME280;58452;59.418;17.962;2023-04-21T09:10:54;102154.63;;;15.84;43.39
70833;BME280;58452;59.418;17.962;2023-04-21T09:13:20;102160.88;;;16.01;42.75
70833;BME280;58452;59.418;17.962;2023-04-21T09:15:49;102153.50;;;15.96;42.05
70833;BME280;58452;59.418;17.962;2023-04-21T09:18:17;102160.72;;;16.12;42.50
70833;BME280;58452;59.418;17.962;2023-04-21T09:20:44;102148.97;;;16.35;42.17
70833;BME280;58452;59.418;17.962;2023-04-21T09:23:10;102148.75;;;16.56;42.21
70833;BME280;58452;59.418;17.962;2023-04-21T09:25:40;102152.06;;;16.76;41.53
70833;BME280;58452;59.418;17.962;2023-04-21T09:28:10;102156.34;;;16.40;40.73
70833;BME280;58452;59.418;17.962;2023-04-21T09:30:40;102154.47;;;16.32;40.69
70833;BME280;58452;59.418;17.962;2023-04-21T09:33:06;102139.00;;;16.48;41.37
70833;BME280;58452;59.418;17.962;2023-04-21T09:35:34;102141.94;;;16.73;40.34
70833;BME280;58452;59.418;17.962;2023-04-21T09:38:09;102131.50;;;16.90;42.24
70833;BME280;58452;59.418;17.962;2023-04-21T09:40:36;102125.69;;;17.14;41.72
70833;BME280;58452;59.418;17.962;2023-04-21T09:43:01;102129.91;;;17.33;40.70
70833;BME280;58452;59.418;17.962;2023-04-21T09:45:28;102134.44;;;17.48;39.09
70833;BME280;58452;59.418;17.962;2023-04-21T09:47:59;102130.59;;;16.82;40.40
70833;BME280;58452;59.418;17.962;2023-04-21T09:50:26;102123.69;;;17.08;38.71
70833;BME280;58452;59.418;17.962;2023-04-21T09:52:54;102123.75;;;17.16;38.94
70833;BME280;58452;59.418;17.962;2023-04-21T09:55:29;102119.41;;;17.42;40.32
70833;BME280;58452;59.418;17.962;2023-04-21T09:57:59;102115.31;;;17.66;39.72
70833;BME280;58452;59.418;17.962;2023-04-21T10:00:26;102108.34;;;17.48;38.98
70833;BME280;58452;59.418;17.962;2023-04-21T10:02:53;102104.22;;;17.20;38.96
70833;BME280;58452;59.418;17.962;2023-04-21T10:05:19;102105.03;;;17.46;39.52
70833;BME280;58452;59.418;17.962;2023-04-21T10:07:46;102099.50;;;17.67;39.36
70833;BME280;58452;59.418;17.962;2023-04-21T10:10:29;102090.63;;;17.86;38.46
70833;BME280;58452;59.418;17.962;2023-04-21T10:12:58;102104.44;;;18.04;37.42
70833;BME280;58452;59.418;17.962;2023-04-21T10:15:36;102092.47;;;18.01;37.22
70833;BME280;58452;59.418;17.962;2023-04-21T10:18:28;102091.38;;;18.04;37.49
70833;BME280;58452;59.418;17.962;2023-04-21T10:20:57;102083.06;;;18.17;37.12
70833;BME280;58452;59.418;17.962;2023-04-21T10:23:44;102084.53;;;17.51;36.80
70833;BME280;58452;59.418;17.962;2023-04-21T10:26:32;102082.59;;;17.28;38.23
70833;BME280;58452;59.418;17.962;2023-04-21T10:29:00;102069.63;;;17.44;37.03
70833;BME280;58452;59.418;17.962;2023-04-21T10:31:33;102074.66;;;17.37;38.48
70833;BME280;58452;59.418;17.962;2023-04-21T10:36:30;102068.31;;;17.99;36.75
70833;BME280;58452;59.418;17.962;2023-04-21T10:38:55;102070.13;;;17.22;37.87
70833;BME280;58452;59.418;17.962;2023-04-21T10:41:32;102062.16;;;17.23;36.59
70833;BME280;58452;59.418;17.962;2023-04-21T10:49:09;102058.38;;;17.43;38.01
70833;BME280;58452;59.418;17.962;2023-04-21T10:54:29;102047.53;;;17.82;36.46
70833;BME280;58452;59.418;17.962;2023-04-21T10:56:58;102050.47;;;17.87;36.66
70833;BME280;58452;59.418;17.962;2023-04-21T10:59:25;102053.47;;;18.00;37.35
70833;BME280;58452;59.418;17.962;2023-04-21T11:01:51;102047.69;;;18.30;36.87
70833;BME280;58452;59.418;17.962;2023-04-21T11:04:18;102048.72;;;18.53;36.13
70833;BME280;58452;59.418;17.962;2023-04-21T11:07:17;102042.22;;;18.66;35.22
70833;BME280;58452;59.418;17.962;2023-04-21T11:09:44;102048.28;;;18.74;35.86
70833;BME280;58452;59.418;17.962;2023-04-21T11:12:11;102050.06;;;18.90;34.63
70833;BME280;58452;59.418;17.962;2023-04-21T11:14:39;102039.44;;;18.75;35.25
70833;BME280;58452;59.418;17.962;2023-04-21T11:17:10;102036.34;;;19.04;35.63
70833;BME280;58452;59.418;17.962;2023-04-21T11:19:37;102033.53;;;19.06;32.82
70833;BME280;58452;59.418;17.962;2023-04-21T11:22:03;102042.69;;;18.53;34.61
70833;BME280;58452;59.418;17.962;2023-04-21T11:24:29;102033.38;;;18.91;34.27
70833;BME280;58452;59.418;17.962;2023-04-21T11:26:54;102032.19;;;18.37;33.25
70833;BME280;58452;59.418;17.962;2023-04-21T11:29:21;102032.97;;;18.29;35.05
70833;BME280;58452;59.418;17.962;2023-04-21T11:31:47;102035.31;;;18.48;34.32
70833;BME280;58452;59.418;17.962;2023-04-21T11:34:14;102027.19;;;18.60;34.42
70833;BME280;58452;59.418;17.962;2023-04-21T11:36:44;102018.00;;;18.72;33.85
70833;BME280;58452;59.418;17.962;2023-04-21T11:39:15;102020.09;;;18.44;34.61
70833;BME280;58452;59.418;17.962;2023-04-21T11:41:43;102020.84;;;18.12;34.58
70833;BME280;58452;59.418;17.962;2023-04-21T11:44:10;102002.75;;;18.19;35.06
70833;BME280;58452;59.418;17.962;2023-04-21T11:46:36;101998.38;;;18.68;35.80
70833;BME280;58452;59.418;17.962;2023-04-21T11:49:04;101999.38;;;18.91;32.75
70833;BME280;58452;59.418;17.962;2023-04-21T11:53:59;101998.47;;;18.10;34.28
70833;BME280;58452;59.418;17.962;2023-04-21T11:56:25;101993.97;;;18.68;33.94
70833;BME280;58452;59.418;17.962;2023-04-21T11:58:51;101993.50;;;18.81;34.87
70833;BME280;58452;59.418;17.962;2023-04-21T12:01:17;101993.44;;;19.29;34.46
70833;BME280;58452;59.418;17.962;2023-04-21T12:03:54;101989.94;;;19.45;33.52
70833;BME280;58452;59.418;17.962;2023-04-21T12:06:25;101984.41;;;19.79;33.06
70833;BME280;58452;59.418;17.962;2023-04-21T12:08:59;101985.06;;;20.12;32.75
70833;BME280;58452;59.418;17.962;2023-04-21T12:11:29;101978.88;;;20.35;32.40
70833;BME280;58452;59.418;17.962;2023-04-21T12:13:59;101977.78;;;20.67;32.46
70833;BME280;58452;59.418;17.962;2023-04-21T12:16:28;101976.53;;;20.78;33.37
70833;BME280;58452;59.418;17.962;2023-04-21T12:18:55;101966.56;;;21.11;32.43
70833;BME280;58452;59.418;17.962;2023-04-21T12:21:25;101962.22;;;21.32;31.23
70833;BME280;58452;59.418;17.962;2023-04-21T12:23:51;101971.81;;;21.40;30.12
70833;BME280;58452;59.418;17.962;2023-04-21T12:26:16;101962.78;;;21.42;30.08
70833;BME280;58452;59.418;17.962;2023-04-21T12:28:42;101961.22;;;21.33;30.64
70833;BME280;58452;59.418;17.962;2023-04-21T12:31:07;101956.75;;;20.90;30.74
70833;BME280;58452;59.418;17.962;2023-04-21T12:33:32;101956.75;;;20.90;31.59
70833;BME280;58452;59.418;17.962;2023-04-21T12:35:58;101953.91;;;21.14;33.10
70833;BME280;58452;59.418;17.962;2023-04-21T12:38:24;101950.97;;;21.53;31.39
70833;BME280;58452;59.418;17.962;2023-04-21T12:40:50;101944.16;;;21.59;30.38
70833;BME280;58452;59.418;17.962;2023-04-21T12:43:15;101944.84;;;21.82;30.31
70833;BME280;58452;59.418;17.962;2023-04-21T12:45:41;101949.28;;;22.17;29.07
70833;BME280;58452;59.418;17.962;2023-04-21T12:48:06;101947.06;;;21.64;28.77
70833;BME280;58452;59.418;17.962;2023-04-21T12:50:32;101939.53;;;21.75;28.37
70833;BME280;58452;59.418;17.962;2023-04-21T12:52:58;101930.25;;;21.14;29.37
70833;BME280;58452;59.418;17.962;2023-04-21T12:55:23;101929.25;;;21.01;28.77